Terminal Aerodrome Forecast
Issued by NWS Wilmington, OH

Current Version | Previous Version | Text Only | Print | Product List | Glossary Off
Versions: 1 2 3 4 5 6 7 8 9 10 11 12 13 14 15 16 17 18 19 20 21 22 23 24 25 26

000
FTUS41 KILN 280000 AAA
TAFILN
TAF AMD
KILN 280003Z 2800/2824 25014KT 5SM -SHRA SCT025
      TEMPO 2800/2801 28015G35KT 2SM -TSRA BKN025CB
     FM280100 28012G22KT P6SM SCT035 BKN050
     FM280400 28010KT P6SM FEW050
     FM280900 29010KT P6SM OVC012
     FM281500 30011KT P6SM VCSH OVC022
     FM281800 31011G19KT P6SM -SHRA BKN035
     FM282300 31010KT P6SM SCT035=

USA.gov is the U.S. government's official web portal to all federal, state and local government web resources and services.